Time;durP1;ratioP1;P1;durP2;ratioP2;P2;SDS_P1;SDS_P2;PMS_P1;PMS_P2;Temp;Humidity;BMP_temperature;BMP_pressure;BME280_temperature;BME280_humidity;BME280_pressure;Samples;Min_cycle;Max_cycle;Signal;HPM_P1;HPM_P2
2023/12/29 00:04:42;;;;;;;3.10;2.90;;;9.90;99.90;;;;;;5037489;28;20458;-82
2023/12/29 00:07:30;;;;;;;3.13;3.00;;;10.00;99.90;;;;;;5039438;28;20451;-81
2023/12/29 00:10:12;;;;;;;3.40;3.20;;;10.10;99.90;;;;;;5040298;28;20480;-81
2023/12/29 00:16:09;;;;;;;3.77;3.47;;;10.00;99.90;;;;;;5035922;28;20521;-80
2023/12/29 00:19:10;;;;;;;3.73;3.53;;;10.10;99.90;;;;;;5041188;28;20454;-81
2023/12/29 00:22:11;;;;;;;3.80;3.50;;;10.30;99.90;;;;;;5039998;28;20470;-80
2023/12/29 00:29:21;;;;;;;3.47;3.20;;;10.20;99.90;;;;;;4945276;28;20427;-80
2023/12/29 00:38:19;;;;;;;3.20;3.00;;;10.20;99.90;;;;;;5035777;28;20455;-80
2023/12/29 00:41:14;;;;;;;3.40;3.20;;;10.20;99.90;;;;;;5041365;28;20505;-81
2023/12/29 00:47:15;;;;;;;2.77;2.63;;;10.20;99.90;;;;;;5025537;28;20508;-83
2023/12/29 00:50:28;;;;;;;3.40;3.20;;;10.00;99.90;;;;;;5038660;28;20457;-81
2023/12/29 00:53:17;;;;;;;3.20;3.00;;;10.20;99.90;;;;;;5042067;28;20851;-81
2023/12/29 00:59:39;;;;;;;3.43;3.13;;;10.30;99.90;;;;;;5018770;28;20435;-80
2023/12/29 01:21:36;;;;;;;3.90;3.53;;;10.40;99.90;;;;;;5021960;28;20447;-81
2023/12/29 01:28:22;;;;;;;3.77;3.57;;;10.30;99.90;;;;;;5042838;28;20446;-80
2023/12/29 01:38:33;;;;;;;3.33;3.13;;;10.30;99.90;;;;;;4953294;29;20461;-80
2023/12/29 01:41:36;;;;;;;4.10;3.80;;;10.30;99.90;;;;;;4994001;28;20477;-81
2023/12/29 01:45:08;;;;;;;;;;;;;;;;;;;;;
2023/12/29 01:48:02;;;;;;;4.20;3.43;;;10.40;99.90;;;;;;5040815;28;20947;-79
2023/12/29 01:51:13;;;;;;;3.80;3.43;;;10.40;99.90;;;;;;5041186;28;21066;-82
2023/12/29 01:54:24;;;;;;;;;;;;;;;;;;;;;
2023/12/29 01:57:40;;;;;;;4.10;3.80;;;10.40;99.90;;;;;;5017920;28;20461;-80
2023/12/29 02:04:18;;;;;;;4.00;3.70;;;10.40;99.90;;;;;;4946370;28;20461;-80
2023/12/29 02:07:19;;;;;;;3.90;3.70;;;10.40;99.90;;;;;;5002615;28;20471;-82
2023/12/29 02:13:10;;;;;;;4.10;3.80;;;10.40;99.90;;;;;;5042697;28;20521;-80
2023/12/29 02:16:05;;;;;;;4.00;3.80;;;10.40;99.90;;;;;;5041995;28;20442;-81
2023/12/29 02:19:21;;;;;;;;;;;;;;;;;;;;;
2023/12/29 02:25:55;;;;;;;4.80;3.90;;;10.50;99.90;;;;;;5025774;28;20451;-81
2023/12/29 02:35:21;;;;;;;4.37;3.97;;;10.50;99.90;;;;;;5030102;28;20828;-80
2023/12/29 02:38:21;;;;;;;4.30;4.00;;;10.50;99.90;;;;;;5038229;28;20458;-81
2023/12/29 02:48:06;;;;;;;4.83;4.37;;;10.50;99.90;;;;;;5015910;28;20432;-82
2023/12/29 02:51:17;;;;;;;4.27;3.87;;;10.70;99.90;;;;;;4943407;28;21087;-80
2023/12/29 02:54:15;;;;;;;4.27;3.97;;;10.50;99.90;;;;;;4991527;28;20587;-81
2023/12/29 02:57:23;;;;;;;4.33;3.90;;;10.50;99.90;;;;;;5033348;28;20443;-82
2023/12/29 03:03:53;;;;;;;4.83;4.43;;;10.40;99.90;;;;;;4990146;28;20487;-81
2023/12/29 03:07:08;;;;;;;4.60;4.20;;;10.40;99.90;;;;;;4876756;29;20467;-80
2023/12/29 03:10:16;;;;;;;4.20;3.70;;;10.40;99.90;;;;;;4919507;29;20444;-80
2023/12/29 03:16:27;;;;;;;4.67;3.83;;;10.30;99.90;;;;;;5023923;28;20544;-81
2023/12/29 03:19:12;;;;;;;4.80;4.40;;;10.30;99.90;;;;;;5018317;28;20448;-82
2023/12/29 03:22:24;;;;;;;;;;;;;;;;;;;;;
2023/12/29 03:25:08;;;;;;;4.53;4.23;;;10.20;99.90;;;;;;5019778;28;20443;-81
2023/12/29 03:27:56;;;;;;;4.53;4.17;;;10.30;99.90;;;;;;5021931;28;20849;-81
2023/12/29 03:30:49;;;;;;;;;;;;;;;;;;;;;
2023/12/29 03:37:36;;;;;;;4.70;4.30;;;10.20;99.90;;;;;;4986833;28;20447;-79
2023/12/29 03:40:44;;;;;;;;;;;;;;;;;;;;;
2023/12/29 03:46:38;;;;;;;4.20;3.80;;;10.10;99.90;;;;;;5037915;28;20439;-79
2023/12/29 03:49:26;;;;;;;4.43;4.13;;;10.10;99.90;;;;;;5037085;28;20521;-80
2023/12/29 03:52:43;;;;;;;4.30;3.40;;;10.10;99.90;;;;;;5028964;28;20471;-80
2023/12/29 03:55:37;;;;;;;3.33;3.13;;;10.10;99.90;;;;;;5036614;28;20450;-80
2023/12/29 03:58:18;;;;;;;4.63;4.23;;;10.10;99.90;;;;;;5037740;28;20438;-81
2023/12/29 04:04:23;;;;;;;3.30;3.10;;;10.00;99.90;;;;;;5018438;28;20502;-81
2023/12/29 04:07:42;;;;;;;3.37;3.17;;;10.00;99.90;;;;;;5022264;28;20463;-79
2023/12/29 04:10:33;;;;;;;3.93;3.73;;;10.00;99.90;;;;;;5002430;28;20475;-82
2023/12/29 04:13:30;;;;;;;3.80;3.50;;;10.00;99.90;;;;;;5034114;28;20439;-80
2023/12/29 04:16:37;;;;;;;3.93;3.70;;;9.90;99.90;;;;;;5025667;28;20520;-81
2023/12/29 04:19:47;;;;;;;4.20;3.80;;;9.90;99.90;;;;;;5021626;28;20450;-81
2023/12/29 04:22:51;;;;;;;3.33;3.13;;;9.90;99.90;;;;;;5031838;28;20466;-80
2023/12/29 04:25:41;;;;;;;3.47;3.27;;;9.90;99.90;;;;;;5039524;28;20473;-81
2023/12/29 04:28:22;;;;;;;3.47;3.13;;;9.90;99.90;;;;;;5034895;28;20449;-80
2023/12/29 04:31:11;;;;;;;3.40;3.20;;;9.90;99.90;;;;;;5026025;28;20447;-80
2023/12/29 04:33:57;;;;;;;3.67;3.37;;;9.90;99.90;;;;;;5030843;28;20448;-80
2023/12/29 04:37:18;;;;;;;3.73;3.53;;;9.90;99.90;;;;;;5031383;28;20508;-80
2023/12/29 04:40:35;;;;;;;3.50;3.20;;;9.90;99.90;;;;;;5032032;28;20935;-81
2023/12/29 04:43:20;;;;;;;3.67;3.40;;;9.80;99.90;;;;;;5014094;28;20451;-79
2023/12/29 04:49:20;;;;;;;4.10;3.80;;;9.80;99.90;;;;;;5020423;28;20819;-80
2023/12/29 04:52:04;;;;;;;3.70;3.43;;;9.80;99.90;;;;;;5020979;28;20533;-80
2023/12/29 04:55:27;;;;;;;4.40;4.10;;;9.80;99.90;;;;;;5033844;28;20483;-81
2023/12/29 04:58:23;;;;;;;4.57;3.90;;;9.80;99.90;;;;;;5021266;28;20466;-80
2023/12/29 05:04:35;;;;;;;4.00;3.70;;;9.80;99.90;;;;;;5033828;28;20437;-81
2023/12/29 05:11:06;;;;;;;4.03;3.73;;;9.80;99.90;;;;;;5030063;28;20460;-81
2023/12/29 05:17:18;;;;;;;3.57;3.37;;;9.80;99.90;;;;;;4924385;28;20538;-81
2023/12/29 05:20:09;;;;;;;4.40;4.10;;;9.80;99.90;;;;;;5033594;28;20959;-82
2023/12/29 05:23:34;;;;;;;;;;;;;;;;;;;;;
2023/12/29 05:26:46;;;;;;;3.90;3.60;;;9.80;99.90;;;;;;5042148;28;20939;-81
2023/12/29 05:29:48;;;;;;;4.27;3.97;;;9.90;99.90;;;;;;5034365;28;20463;-81
2023/12/29 05:32:56;;;;;;;4.60;4.10;;;9.80;99.90;;;;;;5026507;28;20510;-80
2023/12/29 05:42:33;;;;;;;4.47;4.10;;;10.00;99.90;;;;;;5012355;28;20467;-80
2023/12/29 05:49:03;;;;;;;3.90;3.60;;;9.90;99.90;;;;;;5021917;28;20457;-82
2023/12/29 05:52:05;;;;;;;4.80;4.47;;;9.70;99.90;;;;;;5042543;28;20582;-83
2023/12/29 05:55:02;;;;;;;4.30;4.00;;;9.70;99.90;;;;;;5054801;28;20504;-82
2023/12/29 06:00:46;;;;;;;3.87;3.67;;;9.70;99.90;;;;;;5034689;28;20443;-81
2023/12/29 06:03:37;;;;;;;4.10;3.80;;;9.70;99.90;;;;;;5032866;28;20455;-80
2023/12/29 06:06:23;;;;;;;4.10;3.80;;;9.70;99.90;;;;;;5031913;28;20440;-80
2023/12/29 06:12:25;;;;;;;3.97;3.63;;;9.50;99.90;;;;;;5024899;28;20533;-80
2023/12/29 06:18:28;;;;;;;4.60;3.90;;;9.60;99.90;;;;;;5044299;28;20427;-81
2023/12/29 06:21:13;;;;;;;;;;;;;;;;;;;;;
2023/12/29 06:24:30;;;;;;;3.77;3.47;;;9.60;99.90;;;;;;5038486;28;20433;-81
2023/12/29 06:27:21;;;;;;;4.70;4.30;;;9.80;99.90;;;;;;5032067;28;20439;-80
2023/12/29 06:33:20;;;;;;;4.00;3.70;;;9.60;99.90;;;;;;5036284;28;20490;-81
2023/12/29 06:36:01;;;;;;;4.07;3.77;;;9.60;99.90;;;;;;5040094;28;20907;-80
2023/12/29 06:38:40;;;;;;;3.80;3.50;;;9.50;99.90;;;;;;5038584;28;20490;-82
2023/12/29 06:44:48;;;;;;;3.50;3.30;;;9.50;99.90;;;;;;5012567;28;20451;-80
2023/12/29 06:48:00;;;;;;;3.80;3.50;;;9.50;99.90;;;;;;5032042;28;20446;-82
2023/12/29 06:50:42;;;;;;;4.30;3.77;;;9.50;99.90;;;;;;5032636;28;20486;-81
2023/12/29 06:53:56;;;;;;;3.20;3.00;;;9.50;99.90;;;;;;5024282;28;20509;-81
2023/12/29 06:56:58;;;;;;;;;;;;;;;;;;;;;
2023/12/29 06:59:50;;;;;;;4.20;3.90;;;9.50;99.90;;;;;;5038872;28;20450;-82
2023/12/29 07:05:26;;;;;;;3.40;3.10;;;9.60;99.90;;;;;;5031436;28;20517;-81
2023/12/29 07:08:24;;;;;;;5.77;3.13;;;9.60;99.90;;;;;;5039609;28;20537;-82
2023/12/29 07:11:16;;;;;;;4.03;3.73;;;9.60;99.90;;;;;;5027465;28;20470;-83
2023/12/29 07:19:52;;;;;;;3.00;2.90;;;9.70;99.90;;;;;;5037520;28;20511;-82
2023/12/29 07:32:28;;;;;;;4.50;3.40;;;9.70;99.90;;;;;;4974811;28;20484;-83
2023/12/29 07:38:44;;;;;;;3.10;2.90;;;9.70;99.90;;;;;;5039625;28;20433;-83
2023/12/29 07:41:29;;;;;;;3.43;3.23;;;9.70;99.90;;;;;;5038181;28;20466;-82
2023/12/29 07:44:20;;;;;;;3.70;3.33;;;9.70;99.90;;;;;;5031251;28;20455;-82
2023/12/29 07:57:39;;;;;;;;;;;;;;;;;;;;;
2023/12/29 08:07:16;;;;;;;;;;;;;;;;;;;;;
2023/12/29 08:10:27;;;;;;;3.80;3.60;;;9.90;99.90;;;;;;5026830;28;20454;-83
2023/12/29 08:20:08;;;;;;;;;;;;;;;;;;;;;
2023/12/29 08:25:58;;;;;;;3.57;3.37;;;10.20;99.90;;;;;;5002919;28;20516;-81
2023/12/29 08:29:05;;;;;;;3.57;3.33;;;10.00;99.90;;;;;;5018449;28;20494;-83
2023/12/29 08:31:51;;;;;;;3.47;3.27;;;10.30;99.90;;;;;;5037126;28;20484;-82
2023/12/29 08:34:49;;;;;;;3.60;3.30;;;10.10;99.90;;;;;;5043377;28;20449;-83
2023/12/29 08:37:19;;;;;;;3.70;3.50;;;10.10;99.90;;;;;;5048427;28;20657;-80
2023/12/29 08:40:29;;;;;;;3.50;3.20;;;10.10;99.90;;;;;;5040853;28;20443;-81
2023/12/29 08:43:21;;;;;;;;;;;;;;;;;;;;;
2023/12/29 08:46:08;;;;;;;3.60;3.40;;;10.20;99.90;;;;;;5047160;28;20447;-81
2023/12/29 08:48:43;;;;;;;4.20;3.80;;;10.20;99.90;;;;;;5030747;28;20474;-82
2023/12/29 08:51:25;;;;;;;3.20;3.00;;;10.20;99.90;;;;;;5026495;28;20474;-82
2023/12/29 08:53:58;;;;;;;3.53;3.33;;;10.20;99.90;;;;;;5026946;28;20537;-82
2023/12/29 08:56:30;;;;;;;3.20;3.00;;;10.20;99.90;;;;;;5025271;28;20435;-81
2023/12/29 09:02:46;;;;;;;;;;;;;;;;;;;;;
2023/12/29 09:12:54;;;;;;;3.60;3.30;;;10.30;99.90;;;;;;4790819;29;20529;-82
2023/12/29 09:15:28;;;;;;;3.63;3.40;;;10.50;99.90;;;;;;4967091;28;20452;-83
2023/12/29 09:18:11;;;;;;;3.50;3.30;;;10.60;99.90;;;;;;5036921;28;20660;-81
2023/12/29 09:20:49;;;;;;;3.30;3.10;;;10.30;99.90;;;;;;5025755;28;20462;-81
2023/12/29 09:23:38;;;;;;;3.57;3.27;;;10.10;99.90;;;;;;5032354;28;20524;-80
2023/12/29 09:26:18;;;;;;;3.50;3.30;;;10.40;99.90;;;;;;5036457;28;20447;-80
2023/12/29 09:28:50;;;;;;;2.73;2.60;;;10.40;99.90;;;;;;5034115;28;20522;-80
2023/12/29 09:31:26;;;;;;;3.27;3.03;;;10.70;99.90;;;;;;5034619;28;20565;-82
2023/12/29 09:33:56;;;;;;;3.20;3.00;;;10.60;99.90;;;;;;5043142;28;20478;-82
2023/12/29 09:36:32;;;;;;;2.90;2.70;;;10.80;99.90;;;;;;5030043;28;20443;-80
2023/12/29 09:39:02;;;;;;;2.97;2.77;;;10.90;99.90;;;;;;5025848;28;20871;-80
2023/12/29 09:41:45;;;;;;;3.40;3.07;;;10.90;99.90;;;;;;5045509;28;20508;-81
2023/12/29 09:44:22;;;;;;;2.90;2.50;;;11.00;99.90;;;;;;5046023;28;20453;-82
2023/12/29 09:47:06;;;;;;;2.73;2.53;;;11.00;99.90;;;;;;5047284;28;20457;-82
2023/12/29 09:49:42;;;;;;;3.00;2.80;;;10.90;99.90;;;;;;5048272;28;20446;-82
2023/12/29 09:52:14;;;;;;;2.60;2.50;;;10.90;99.90;;;;;;5046913;28;20497;-80
2023/12/29 09:54:51;;;;;;;2.37;2.27;;;11.20;99.90;;;;;;5045955;28;20511;-82
2023/12/29 09:57:22;;;;;;;3.23;2.47;;;11.00;99.90;;;;;;5045681;28;20520;-82
2023/12/29 09:59:55;;;;;;;2.47;2.27;;;11.00;99.90;;;;;;5046861;28;20446;-80
2023/12/29 10:02:30;;;;;;;3.40;2.50;;;11.10;99.90;;;;;;5046019;28;20488;-82
2023/12/29 10:05:09;;;;;;;2.50;2.30;;;11.20;99.90;;;;;;5046978;28;20533;-82
2023/12/29 10:07:51;;;;;;;2.50;2.30;;;11.50;99.90;;;;;;5048016;28;20415;-81
2023/12/29 10:10:23;;;;;;;2.33;2.23;;;11.40;99.90;;;;;;5047427;28;20446;-80
2023/12/29 10:12:58;;;;;;;2.30;2.20;;;11.50;99.90;;;;;;5046494;28;20497;-82
2023/12/29 10:15:46;;;;;;;3.00;2.43;;;11.70;99.90;;;;;;5047032;28;20924;-81
2023/12/29 10:18:27;;;;;;;2.97;2.77;;;11.90;99.90;;;;;;5048610;28;20438;-81
2023/12/29 10:21:03;;;;;;;2.83;2.60;;;11.90;99.90;;;;;;5051247;28;20468;-81
2023/12/29 10:23:43;;;;;;;2.60;2.50;;;12.10;99.90;;;;;;5051825;28;20489;-82
2023/12/29 10:26:13;;;;;;;2.40;2.30;;;12.10;99.90;;;;;;5049951;28;20500;-82
2023/12/29 10:28:41;;;;;;;2.27;2.07;;;12.40;99.90;;;;;;5051221;28;20430;-81
2023/12/29 10:31:17;;;;;;;2.83;2.43;;;12.30;99.90;;;;;;5050435;28;20537;-81
2023/12/29 10:33:50;;;;;;;2.70;2.50;;;12.20;99.90;;;;;;5049153;28;20477;-81
2023/12/29 10:36:24;;;;;;;3.30;2.40;;;12.30;99.90;;;;;;5049803;28;20533;-80
2023/12/29 10:39:10;;;;;;;2.13;2.03;;;12.40;99.90;;;;;;5049079;28;20481;-81
2023/12/29 10:41:41;;;;;;;2.27;2.17;;;12.40;99.90;;;;;;5050915;28;20548;-81
2023/12/29 10:44:10;;;;;;;1.93;1.83;;;12.60;99.90;;;;;;5049456;28;20446;-81
2023/12/29 10:46:43;;;;;;;1.70;1.70;;;12.80;99.90;;;;;;5051651;28;20501;-79
2023/12/29 10:49:22;;;;;;;1.63;1.53;;;12.90;99.90;;;;;;5049538;28;20478;-83
2023/12/29 10:52:16;;;;;;;3.00;2.00;;;12.70;99.90;;;;;;5047992;28;20458;-83
2023/12/29 10:55:04;;;;;;;1.20;1.20;;;12.90;99.90;;;;;;5048937;28;20556;-83
2023/12/29 10:57:36;;;;;;;1.70;1.60;;;12.90;99.90;;;;;;5052691;28;20488;-83
2023/12/29 11:00:09;;;;;;;2.10;2.00;;;12.90;99.90;;;;;;5053768;28;20522;-84
2023/12/29 11:02:46;;;;;;;1.77;1.70;;;13.20;99.90;;;;;;5052160;28;20462;-84
2023/12/29 11:05:27;;;;;;;1.80;1.70;;;13.20;99.90;;;;;;5050415;28;20454;-81
2023/12/29 11:07:58;;;;;;;1.60;1.50;;;13.30;99.90;;;;;;5049269;28;20447;-83
2023/12/29 11:10:28;;;;;;;1.67;1.57;;;13.60;99.90;;;;;;5050015;28;20486;-84
2023/12/29 11:13:06;;;;;;;1.67;1.50;;;13.40;99.90;;;;;;5051264;28;20569;-83
2023/12/29 11:15:45;;;;;;;1.50;1.50;;;13.40;99.90;;;;;;5049888;28;20930;-82
2023/12/29 11:18:26;;;;;;;1.57;1.53;;;13.60;99.90;;;;;;5050536;28;20461;-82
2023/12/29 11:21:06;;;;;;;1.40;1.30;;;13.70;99.90;;;;;;5050730;28;20467;-83
2023/12/29 11:24:00;;;;;;;1.50;1.50;;;13.20;99.90;;;;;;5051489;28;20442;-83
2023/12/29 11:26:42;;;;;;;1.90;1.80;;;13.10;99.90;;;;;;5050474;28;20509;-83
2023/12/29 11:29:24;;;;;;;1.43;1.40;;;13.10;99.90;;;;;;5047823;28;20447;-84
2023/12/29 11:32:08;;;;;;;1.77;1.67;;;13.30;99.90;;;;;;5044646;28;20529;-85
2023/12/29 11:35:03;;;;;;;2.10;2.00;;;13.40;99.90;;;;;;5045136;28;20520;-84
2023/12/29 11:38:08;;;;;;;1.90;1.80;;;13.40;99.90;;;;;;5045630;28;20510;-83
2023/12/29 11:44:09;;;;;;;1.60;1.50;;;13.40;99.90;;;;;;5051418;28;20427;-85
2023/12/29 11:46:50;;;;;;;1.50;1.50;;;12.90;99.90;;;;;;5054900;28;20431;-85
2023/12/29 11:49:30;;;;;;;1.53;1.53;;;13.10;99.90;;;;;;5053071;28;20469;-85
2023/12/29 11:51:59;;;;;;;1.97;1.87;;;13.10;99.90;;;;;;5050498;28;20447;-84
2023/12/29 11:54:46;;;;;;;;;;;;;;;;;;;;;
2023/12/29 11:57:44;;;;;;;1.90;1.80;;;13.30;99.90;;;;;;5051007;28;20427;-84
2023/12/29 12:00:40;;;;;;;1.47;1.37;;;13.20;99.90;;;;;;5049727;28;20442;-84
2023/12/29 12:03:32;;;;;;;1.60;1.60;;;13.10;99.90;;;;;;5045561;28;20450;-80
2023/12/29 12:06:04;;;;;;;1.50;1.40;;;13.10;99.90;;;;;;5035903;28;20507;-80
2023/12/29 12:08:41;;;;;;;2.13;1.93;;;13.40;99.90;;;;;;5027413;28;20440;-82
2023/12/29 12:11:50;;;;;;;1.40;1.40;;;13.20;99.90;;;;;;5028458;28;20471;-79
2023/12/29 12:14:50;;;;;;;1.90;1.80;;;13.10;99.90;;;;;;5024952;28;20481;-84
2023/12/29 12:17:36;;;;;;;1.70;1.63;;;12.90;99.90;;;;;;5020364;28;20451;-83
2023/12/29 12:20:12;;;;;;;1.60;1.50;;;13.10;99.90;;;;;;5024638;28;20844;-83
2023/12/29 12:22:57;;;;;;;1.80;1.80;;;13.10;99.90;;;;;;5023158;28;20443;-80
2023/12/29 12:25:28;;;;;;;1.60;1.60;;;12.90;99.90;;;;;;5021208;28;20944;-80
2023/12/29 12:28:00;;;;;;;1.80;1.70;;;13.00;99.90;;;;;;5021115;28;20482;-80
2023/12/29 12:30:31;;;;;;;2.07;1.87;;;13.00;99.90;;;;;;5023149;28;20464;-82
2023/12/29 12:33:03;;;;;;;1.80;1.70;;;13.20;99.90;;;;;;5025822;28;20522;-81
2023/12/29 12:35:39;;;;;;;1.27;1.27;;;13.30;99.90;;;;;;5025590;28;20428;-83
2023/12/29 12:38:13;;;;;;;1.87;1.77;;;13.40;99.90;;;;;;5024770;28;20931;-81
2023/12/29 12:40:50;;;;;;;1.57;1.47;;;13.40;99.90;;;;;;5025439;28;20463;-82
2023/12/29 12:43:25;;;;;;;2.03;1.93;;;13.20;99.90;;;;;;5022337;28;20440;-82
2023/12/29 12:46:06;;;;;;;1.90;1.80;;;13.20;99.90;;;;;;5021029;28;20450;-83
2023/12/29 12:48:37;;;;;;;1.50;1.50;;;13.30;99.90;;;;;;5021891;28;20979;-83
2023/12/29 12:51:05;;;;;;;1.77;1.67;;;13.40;99.90;;;;;;5020551;28;20507;-83
2023/12/29 12:53:35;;;;;;;1.60;1.60;;;13.40;99.90;;;;;;5020168;28;20499;-84
2023/12/29 12:56:03;;;;;;;1.80;1.70;;;13.50;99.90;;;;;;5019092;28;20530;-84
2023/12/29 12:58:37;;;;;;;1.87;1.67;;;13.50;99.90;;;;;;5020184;28;20486;-82
2023/12/29 13:01:08;;;;;;;2.80;1.83;;;13.40;99.90;;;;;;5023309;28;20469;-82
2023/12/29 13:03:41;;;;;;;2.30;2.20;;;13.30;99.90;;;;;;5022433;28;20497;-84
2023/12/29 13:06:16;;;;;;;1.90;1.80;;;13.40;99.90;;;;;;5037884;28;20457;-83
2023/12/29 13:08:46;;;;;;;2.10;2.00;;;13.30;99.90;;;;;;5043731;28;20593;-80
2023/12/29 13:11:25;;;;;;;2.20;2.10;;;13.30;99.90;;;;;;5045112;28;20490;-82
2023/12/29 13:14:04;;;;;;;2.10;1.70;;;13.40;99.90;;;;;;5044760;28;20470;-83
2023/12/29 13:16:38;;;;;;;2.10;2.00;;;13.50;99.90;;;;;;5045760;28;20479;-83
2023/12/29 13:19:22;;;;;;;1.47;1.47;;;13.30;99.90;;;;;;5046098;28;20434;-80
2023/12/29 13:21:55;;;;;;;1.70;1.67;;;13.30;99.90;;;;;;5044373;28;20459;-80
2023/12/29 13:24:29;;;;;;;1.87;1.80;;;13.20;99.90;;;;;;5045537;28;20450;-81
2023/12/29 13:27:01;;;;;;;2.37;2.17;;;13.30;99.90;;;;;;5041621;28;20447;-83
2023/12/29 13:29:35;;;;;;;1.60;1.50;;;13.10;99.90;;;;;;5040781;28;20462;-80
2023/12/29 13:32:06;;;;;;;1.57;1.57;;;13.30;99.90;;;;;;5039771;28;20539;-82
2023/12/29 13:34:49;;;;;;;2.03;1.93;;;13.10;99.90;;;;;;5040467;28;20513;-81
2023/12/29 13:37:23;;;;;;;2.57;1.83;;;13.10;99.90;;;;;;5040888;28;20717;-80
2023/12/29 13:40:01;;;;;;;2.00;1.80;;;13.20;99.90;;;;;;5039767;28;20458;-81
2023/12/29 13:42:47;;;;;;;1.87;1.77;;;13.10;99.90;;;;;;5040700;28;20447;-83
2023/12/29 13:45:25;;;;;;;1.50;1.40;;;13.00;99.90;;;;;;5041760;28;20461;-83
2023/12/29 13:47:55;;;;;;;2.00;1.90;;;12.90;99.90;;;;;;5042043;28;20455;-84
2023/12/29 13:50:26;;;;;;;3.53;1.97;;;12.70;99.90;;;;;;5043170;28;20446;-82
2023/12/29 13:53:01;;;;;;;1.40;1.40;;;12.90;99.90;;;;;;5043839;28;20457;-82
2023/12/29 13:55:34;;;;;;;1.90;1.80;;;12.90;99.90;;;;;;5048478;28;20532;-83
2023/12/29 13:58:12;;;;;;;1.83;1.73;;;12.90;99.90;;;;;;5049271;28;20443;-82
2023/12/29 14:01:00;;;;;;;1.80;1.70;;;12.80;99.90;;;;;;5046922;28;20470;-81
2023/12/29 14:03:34;;;;;;;1.93;1.50;;;12.80;99.90;;;;;;5044072;28;20434;-81
2023/12/29 14:06:09;;;;;;;2.03;1.80;;;12.80;99.90;;;;;;5045651;28;20442;-84
2023/12/29 14:08:51;;;;;;;1.60;1.50;;;12.80;99.90;;;;;;5044533;28;20458;-82
2023/12/29 14:11:36;;;;;;;1.80;1.70;;;12.80;99.90;;;;;;5044441;28;20462;-83
2023/12/29 14:14:17;;;;;;;2.07;1.97;;;12.80;99.90;;;;;;5046217;28;20588;-81
2023/12/29 14:16:49;;;;;;;1.90;1.80;;;12.80;99.90;;;;;;5044995;28;20824;-82
2023/12/29 14:19:18;;;;;;;2.20;2.00;;;12.80;99.90;;;;;;5045315;28;20504;-83
2023/12/29 14:22:01;;;;;;;2.10;2.00;;;12.80;99.90;;;;;;5045279;28;20455;-81
2023/12/29 14:24:44;;;;;;;1.80;1.70;;;12.80;99.90;;;;;;5046037;28;20512;-80
2023/12/29 14:27:39;;;;;;;1.93;1.83;;;12.80;99.90;;;;;;5046582;28;20442;-81
2023/12/29 14:30:24;;;;;;;1.80;1.67;;;12.70;99.90;;;;;;5045780;28;20462;-80
2023/12/29 14:32:54;;;;;;;2.10;2.00;;;12.70;99.90;;;;;;5042915;28;20457;-81
2023/12/29 14:35:22;;;;;;;2.20;2.00;;;12.70;99.90;;;;;;5041711;28;20486;-83
2023/12/29 14:37:51;;;;;;;2.40;2.30;;;12.50;99.90;;;;;;5041108;28;20447;-81
2023/12/29 14:40:20;;;;;;;1.90;1.80;;;12.70;99.90;;;;;;5041349;28;20469;-80
2023/12/29 14:43:00;;;;;;;3.23;2.03;;;12.70;99.90;;;;;;5044456;28;20450;-81
2023/12/29 14:45:31;;;;;;;1.83;1.57;;;12.70;99.90;;;;;;5046621;28;20454;-82
2023/12/29 14:48:14;;;;;;;2.30;2.10;;;12.60;99.90;;;;;;5046176;28;20466;-80
2023/12/29 14:50:45;;;;;;;1.80;1.70;;;12.60;99.90;;;;;;5045640;28;20454;-82
2023/12/29 14:53:15;;;;;;;2.33;2.20;;;12.60;99.90;;;;;;5045540;28;20416;-81
2023/12/29 14:55:48;;;;;;;2.40;1.80;;;12.60;99.90;;;;;;5042288;28;20489;-80
2023/12/29 14:58:18;;;;;;;2.20;2.10;;;12.60;99.90;;;;;;5041729;28;20447;-83
2023/12/29 15:00:48;;;;;;;2.00;1.90;;;12.60;99.90;;;;;;5039790;28;20462;-81
2023/12/29 15:03:21;;;;;;;2.77;2.53;;;12.50;99.90;;;;;;5040482;28;20514;-82
2023/12/29 15:05:58;;;;;;;1.47;1.30;;;12.50;99.90;;;;;;5026249;28;20966;-82
2023/12/29 15:08:34;;;;;;;2.20;2.07;;;12.50;99.90;;;;;;5018621;28;20455;-81
2023/12/29 15:11:02;;;;;;;1.80;1.70;;;12.50;99.90;;;;;;5020179;28;20517;-81
2023/12/29 15:13:42;;;;;;;1.90;1.80;;;12.40;99.90;;;;;;5019777;28;20443;-83
2023/12/29 15:16:10;;;;;;;1.70;1.60;;;12.40;99.90;;;;;;5019352;28;20991;-80
2023/12/29 15:18:45;;;;;;;2.23;2.13;;;12.40;99.90;;;;;;5019300;28;20859;-81
2023/12/29 15:21:15;;;;;;;2.50;2.30;;;12.60;99.90;;;;;;5019066;28;20436;-81
2023/12/29 15:23:42;;;;;;;2.10;1.90;;;12.30;99.90;;;;;;5019307;28;20709;-80
2023/12/29 15:26:14;;;;;;;2.10;2.00;;;12.30;99.90;;;;;;5019056;28;20450;-81
2023/12/29 15:28:41;;;;;;;1.90;1.80;;;12.30;99.90;;;;;;5018265;28;20447;-81
2023/12/29 15:31:10;;;;;;;2.23;2.13;;;12.20;99.90;;;;;;5018034;28;20467;-80
2023/12/29 15:33:43;;;;;;;2.00;1.90;;;12.20;99.90;;;;;;5017639;28;20448;-79
2023/12/29 15:36:20;;;;;;;2.00;1.90;;;12.20;99.90;;;;;;5016714;28;20479;-82
2023/12/29 15:38:48;;;;;;;1.90;1.80;;;12.20;99.90;;;;;;5018871;28;20504;-81
2023/12/29 15:41:17;;;;;;;2.27;2.17;;;12.30;99.90;;;;;;5018351;28;20471;-81
2023/12/29 15:43:49;;;;;;;2.00;1.80;;;12.10;99.90;;;;;;5019012;28;20463;-81
2023/12/29 15:46:21;;;;;;;2.47;2.27;;;12.10;99.90;;;;;;5019267;28;20452;-81
2023/12/29 15:48:55;;;;;;;2.33;2.23;;;12.10;99.90;;;;;;5018251;28;20479;-82
2023/12/29 15:51:26;;;;;;;2.30;2.20;;;12.10;99.90;;;;;;5018161;28;20530;-81
2023/12/29 15:53:55;;;;;;;2.37;2.17;;;12.10;99.90;;;;;;5018478;28;20786;-82
2023/12/29 15:56:25;;;;;;;2.27;2.10;;;12.10;99.90;;;;;;5018363;28;20450;-81
2023/12/29 15:59:00;;;;;;;2.00;1.80;;;12.20;99.90;;;;;;5018833;28;20475;-82
2023/12/29 16:01:32;;;;;;;2.30;2.10;;;12.00;99.90;;;;;;5018344;28;20471;-81
2023/12/29 16:04:26;;;;;;;2.50;2.30;;;12.20;99.90;;;;;;5019751;28;20475;-82
2023/12/29 16:07:02;;;;;;;2.47;2.37;;;12.20;99.90;;;;;;5019043;28;20531;-81
2023/12/29 16:09:30;;;;;;;2.20;2.10;;;12.10;99.90;;;;;;5018852;28;20451;-81
2023/12/29 16:14:46;;;;;;;2.20;2.10;;;11.90;99.90;;;;;;5017723;28;20551;-81
2023/12/29 16:17:49;;;;;;;2.90;2.70;;;11.90;99.90;;;;;;5020291;28;20871;-82
2023/12/29 16:20:24;;;;;;;3.13;2.07;;;11.90;99.90;;;;;;4994325;28;20892;-82
2023/12/29 16:22:54;;;;;;;2.83;2.40;;;11.90;99.90;;;;;;5021654;28;20439;-82
2023/12/29 16:25:33;;;;;;;2.30;2.10;;;11.80;99.90;;;;;;5021514;28;20448;-81
2023/12/29 16:28:08;;;;;;;2.20;2.00;;;12.00;99.90;;;;;;5021385;28;20471;-82
2023/12/29 16:30:42;;;;;;;3.00;2.80;;;11.80;99.90;;;;;;5021439;28;20471;-81
2023/12/29 16:33:15;;;;;;;2.60;2.40;;;11.70;99.90;;;;;;5021429;28;20482;-82
2023/12/29 16:35:50;;;;;;;2.80;2.50;;;11.70;99.90;;;;;;5021558;28;20510;-83
2023/12/29 16:38:57;;;;;;;;;;;;;;;;;;;;;
2023/12/29 16:41:42;;;;;;;3.23;2.93;;;11.80;99.90;;;;;;5019000;28;20459;-81
2023/12/29 16:44:17;;;;;;;5.10;3.97;;;11.60;99.90;;;;;;5020567;28;20458;-80
2023/12/29 16:46:46;;;;;;;3.13;2.90;;;11.50;99.90;;;;;;5020202;28;20447;-79
2023/12/29 16:49:25;;;;;;;3.30;3.00;;;11.20;99.90;;;;;;5020956;28;20505;-81
2023/12/29 16:51:57;;;;;;;3.37;3.17;;;11.50;99.90;;;;;;5023251;28;20456;-81
2023/12/29 16:54:35;;;;;;;4.83;3.37;;;11.40;99.90;;;;;;5024238;28;20456;-80
2023/12/29 16:57:10;;;;;;;3.93;3.60;;;11.40;99.90;;;;;;5023695;28;20455;-80
2023/12/29 16:59:48;;;;;;;3.80;3.50;;;11.30;99.90;;;;;;5025355;28;21033;-83
2023/12/29 17:02:23;;;;;;;6.50;3.47;;;11.40;99.90;;;;;;5025773;28;20494;-83
2023/12/29 17:04:56;;;;;;;4.43;3.30;;;11.20;99.90;;;;;;5026074;28;20446;-85
2023/12/29 17:07:39;;;;;;;6.83;4.10;;;11.20;99.90;;;;;;5027547;28;20459;-82
2023/12/29 17:10:10;;;;;;;3.63;3.03;;;11.10;99.90;;;;;;5025729;28;20463;-83
2023/12/29 17:12:45;;;;;;;3.00;2.40;;;11.00;99.90;;;;;;5025197;28;20505;-84
2023/12/29 17:15:16;;;;;;;3.20;3.00;;;11.00;99.90;;;;;;5023802;28;20471;-83
2023/12/29 17:17:56;;;;;;;2.50;2.40;;;11.20;99.90;;;;;;5023211;28;20435;-84
2023/12/29 17:20:32;;;;;;;3.07;2.77;;;10.90;99.90;;;;;;5027181;28;20463;-84
2023/12/29 17:23:13;;;;;;;3.40;3.20;;;11.00;99.90;;;;;;5029013;28;20461;-83
2023/12/29 17:25:46;;;;;;;5.83;3.10;;;10.80;99.90;;;;;;5028551;28;20462;-84
2023/12/29 17:28:17;;;;;;;4.93;3.97;;;10.70;99.90;;;;;;5028954;28;20463;-83
2023/12/29 17:30:55;;;;;;;4.83;3.57;;;10.70;99.90;;;;;;5030894;28;20459;-84
2023/12/29 17:33:42;;;;;;;3.73;3.30;;;10.70;99.90;;;;;;5027767;28;20459;-83
2023/12/29 17:36:19;;;;;;;3.90;3.23;;;10.60;99.90;;;;;;5027868;28;20463;-85
2023/12/29 17:38:51;;;;;;;2.93;2.63;;;10.70;99.90;;;;;;5023679;28;20821;-83
2023/12/29 17:41:34;;;;;;;3.73;3.30;;;10.50;99.90;;;;;;5028912;28;20501;-85
2023/12/29 17:44:04;;;;;;;2.97;2.77;;;10.50;99.90;;;;;;5029788;28;20447;-82
2023/12/29 17:49:22;;;;;;;3.40;3.20;;;10.40;99.90;;;;;;5026633;28;20444;-84
2023/12/29 17:51:51;;;;;;;3.43;3.13;;;10.40;99.90;;;;;;5028574;28;20459;-82
2023/12/29 17:54:26;;;;;;;4.03;3.73;;;10.30;99.90;;;;;;5025907;28;20436;-82
2023/12/29 17:57:10;;;;;;;3.57;3.30;;;10.30;99.90;;;;;;5024551;28;20455;-83
2023/12/29 17:59:47;;;;;;;3.60;3.37;;;10.20;99.90;;;;;;5022612;28;20459;-83